Warren, Idaho
Current Conditions -  °F | °C
As of 5:51 AM on Saturday 20 Dec 2014 (Local Time) from KMYL Reporting Station
Light Snow Light Snow  
Wind Chill: 24°   Ceiling: 1300
Heat Index: 31°   Visibility: 3mi
Dew Point: 30°   Wind: 7mph
Humidity: 96%   Direction: 150°SSE
Pressure: 29.94"   Gusts: NA
Location:  45.26°N, 115.68°W
Report Text: KMYL 201251Z AUTO 15006KT 3SM -SN BR OVC013 M01/M01 A2994 RMK AO2 SLP159 P0002 T10061011
Loading
Personal Weather Stations






























Interactive Weather Map New forecast layout! Learn more

10-Day Weather Forecast

Advertisements
Track Severe Weather on mobile